JBU783 KJFK-KMKE
Flight info
| Callsign | JBU783 |
|---|---|
| Flight time | N/A |
| Altitude | 36000 |
| Route | DEEZZ6 CANDR J60 DJB CRL PEGEE GETCH LYSTR SUDDS |
| Aircraft | A321/M-SDE3FGHIRWY/LB1 |
Departure
| Time | 2026-05-08 14:42 |
|---|---|
| Airport | John F. Kennedy International Airport (KJFK) |
Arrival
| Time | N/A |
|---|---|
| Airport | General Mitchell International Airport (KMKE) |
| Time | Latitude | Longitude | Altitude | Speed | Heading |
|---|---|---|---|---|---|
| 2026-05-08 14:19 | 40.64612 | -73.77198 | 16 ft | 0 kts | 179° |
| 2026-05-08 14:28 | 40.64621 | -73.77198 | 16 ft | 4 kts | 175° |
| 2026-05-08 14:29 | 40.64644 | -73.77207 | 17 ft | 4 kts | 131° |
| 2026-05-08 14:29 | 40.64657 | -73.77230 | 17 ft | 4 kts | 121° |
| 2026-05-08 14:29 | 40.64666 | -73.77251 | 18 ft | 4 kts | 121° |
| 2026-05-08 14:29 | 40.64680 | -73.77281 | 16 ft | 4 kts | 121° |
| 2026-05-08 14:30 | 40.64691 | -73.77307 | 18 ft | 2 kts | 121° |
| 2026-05-08 14:30 | 40.64705 | -73.77336 | 18 ft | 4 kts | 121° |
| 2026-05-08 14:30 | 40.64718 | -73.77367 | 17 ft | 4 kts | 121° |
| 2026-05-08 14:30 | 40.64733 | -73.77398 | 18 ft | 4 kts | 121° |
| 2026-05-08 14:31 | 40.64746 | -73.77428 | 17 ft | 4 kts | 120° |
| 2026-05-08 14:31 | 40.64757 | -73.77452 | 17 ft | 4 kts | 120° |
| 2026-05-08 14:31 | 40.64762 | -73.77463 | 19 ft | 0 kts | 120° |
| 2026-05-08 14:33 | 40.64759 | -73.77457 | 17 ft | 2 kts | 121° |
| 2026-05-08 14:34 | 40.64747 | -73.77429 | 17 ft | 5 kts | 120° |
| 2026-05-08 14:34 | 40.64748 | -73.77388 | 16 ft | 5 kts | 61° |
| 2026-05-08 14:34 | 40.64777 | -73.77354 | 16 ft | 6 kts | 32° |
| 2026-05-08 14:34 | 40.64779 | -73.77307 | 16 ft | 6 kts | 111° |
| 2026-05-08 14:35 | 40.64756 | -73.77254 | 16 ft | 7 kts | 120° |
| 2026-05-08 14:35 | 40.64727 | -73.77191 | 16 ft | 9 kts | 121° |
| 2026-05-08 14:35 | 40.64687 | -73.77124 | 16 ft | 10 kts | 135° |
| 2026-05-08 14:35 | 40.64622 | -73.77090 | 16 ft | 11 kts | 173° |
| 2026-05-08 14:36 | 40.64542 | -73.77090 | 16 ft | 12 kts | 180° |
| 2026-05-08 14:36 | 40.64454 | -73.77097 | 16 ft | 13 kts | 187° |
| 2026-05-08 14:36 | 40.64425 | -73.77043 | 16 ft | 7 kts | 105° |
| 2026-05-08 14:36 | 40.64410 | -73.76974 | 16 ft | 8 kts | 106° |
| 2026-05-08 14:37 | 40.64381 | -73.76898 | 16 ft | 9 kts | 137° |
| 2026-05-08 14:37 | 40.64315 | -73.76885 | 16 ft | 10 kts | 179° |
| 2026-05-08 14:37 | 40.64247 | -73.76886 | 17 ft | 10 kts | 183° |
| 2026-05-08 14:37 | 40.64177 | -73.76890 | 17 ft | 11 kts | 182° |
| 2026-05-08 14:38 | 40.64093 | -73.76901 | 16 ft | 13 kts | 187° |
| 2026-05-08 14:38 | 40.63998 | -73.76913 | 16 ft | 14 kts | 182° |
| 2026-05-08 14:38 | 40.63893 | -73.76914 | 16 ft | 15 kts | 180° |
| 2026-05-08 14:38 | 40.63783 | -73.76915 | 16 ft | 16 kts | 181° |
| 2026-05-08 14:39 | 40.63663 | -73.76918 | 16 ft | 17 kts | 180° |
| 2026-05-08 14:39 | 40.63539 | -73.76922 | 16 ft | 18 kts | 183° |
| 2026-05-08 14:39 | 40.63408 | -73.76937 | 16 ft | 19 kts | 187° |
| 2026-05-08 14:39 | 40.63275 | -73.76947 | 16 ft | 17 kts | 181° |
| 2026-05-08 14:40 | 40.63157 | -73.76954 | 16 ft | 17 kts | 188° |
| 2026-05-08 14:40 | 40.63044 | -73.77011 | 16 ft | 18 kts | 209° |
| 2026-05-08 14:40 | 40.62937 | -73.77095 | 16 ft | 18 kts | 211° |
| 2026-05-08 14:40 | 40.62834 | -73.77175 | 16 ft | 15 kts | 209° |
| 2026-05-08 14:41 | 40.62827 | -73.77247 | 17 ft | 7 kts | 313° |
| 2026-05-08 14:41 | 40.62850 | -73.77292 | 16 ft | 0 kts | 300° |
| 2026-05-08 14:41 | 40.62863 | -73.77318 | 16 ft | 23 kts | 301° |
| 2026-05-08 14:41 | 40.63080 | -73.77799 | 21 ft | 96 kts | 301° |
| 2026-05-08 14:42 | 40.63532 | -73.78791 | 22 ft | 153 kts | 301° |
| 2026-05-08 14:42 | 40.64116 | -73.80085 | 498 ft | 162 kts | 302° |
| 2026-05-08 14:42 | 40.64576 | -73.81451 | 1312 ft | 167 kts | 272° |
| 2026-05-08 14:42 | 40.63998 | -73.82805 | 1637 ft | 191 kts | 215° |
| 2026-05-08 14:43 | 40.62745 | -73.83581 | 1991 ft | 202 kts | 219° |
| 2026-05-08 14:43 | 40.61673 | -73.84840 | 2283 ft | 213 kts | 227° |
| 2026-05-08 14:43 | 40.60594 | -73.86275 | 2737 ft | 224 kts | 227° |
| 2026-05-08 14:43 | 40.59377 | -73.87597 | 3497 ft | 232 kts | 208° |
| 2026-05-08 14:44 | 40.57684 | -73.87765 | 3917 ft | 265 kts | 162° |
| 2026-05-08 14:44 | 40.56043 | -73.86447 | 4478 ft | 283 kts | 145° |
| 2026-05-08 14:44 | 40.54285 | -73.85286 | 5216 ft | 283 kts | 172° |
| 2026-05-08 14:44 | 40.52343 | -73.85159 | 6057 ft | 279 kts | 187° |
| 2026-05-08 14:45 | 40.50388 | -73.85065 | 6854 ft | 288 kts | 171° |
| 2026-05-08 14:45 | 40.48546 | -73.83959 | 7593 ft | 300 kts | 144° |
| 2026-05-08 14:45 | 40.47165 | -73.81872 | 8333 ft | 308 kts | 121° |
| 2026-05-08 14:45 | 40.46360 | -73.79259 | 9083 ft | 312 kts | 99° |
| 2026-05-08 14:46 | 40.46323 | -73.76425 | 9813 ft | 312 kts | 75° |
| 2026-05-08 14:46 | 40.47121 | -73.73794 | 10468 ft | 307 kts | 50° |
| 2026-05-08 14:46 | 40.48594 | -73.71767 | 10878 ft | 310 kts | 27° |
| 2026-05-08 14:46 | 40.50584 | -73.70629 | 11065 ft | 318 kts | 5° |
| 2026-05-08 14:47 | 40.52816 | -73.70548 | 11215 ft | 329 kts | 348° |
| 2026-05-08 14:47 | 40.55167 | -73.70855 | 11386 ft | 349 kts | 348° |
| 2026-05-08 14:47 | 40.57647 | -73.71180 | 11935 ft | 356 kts | 349° |
| 2026-05-08 14:47 | 40.60134 | -73.71494 | 12609 ft | 361 kts | 349° |
| 2026-05-08 14:48 | 40.62676 | -73.71804 | 13310 ft | 365 kts | 348° |
| 2026-05-08 14:48 | 40.65226 | -73.72111 | 13982 ft | 369 kts | 348° |
| 2026-05-08 14:48 | 40.67789 | -73.72418 | 14608 ft | 372 kts | 348° |
| 2026-05-08 14:48 | 40.70375 | -73.72729 | 15245 ft | 375 kts | 348° |
| 2026-05-08 14:49 | 40.72096 | -73.72936 | 15677 ft | 377 kts | 347° |
| 2026-05-08 14:49 | 40.74765 | -73.73260 | 16334 ft | 380 kts | 347° |
| 2026-05-08 14:49 | 40.77411 | -73.73583 | 16991 ft | 383 kts | 347° |
| 2026-05-08 14:49 | 40.80082 | -73.73910 | 17639 ft | 386 kts | 346° |
| 2026-05-08 14:50 | 40.82736 | -73.74236 | 18257 ft | 389 kts | 346° |
| 2026-05-08 14:50 | 40.85436 | -73.74569 | 18790 ft | 391 kts | 346° |
| 2026-05-08 14:50 | 40.88166 | -73.74906 | 19331 ft | 393 kts | 346° |
| 2026-05-08 14:50 | 40.90012 | -73.75136 | 19690 ft | 395 kts | 346° |